Time;durP1;ratioP1;P1;durP2;ratioP2;P2;SDS_P1;SDS_P2;PMS_P1;PMS_P2;Temp;Humidity;BMP_temperature;BMP_pressure;BME280_temperature;BME280_humidity;BME280_pressure;Samples;Min_cycle;Max_cycle;Signal;HPM_P1;HPM_P2
2021/05/11 00:02:03;;;;;;;9.63;2.42;;;;;;;;;;5015463;28;20059;-82
2021/05/11 00:04:28;;;;;;;12.52;3.05;;;;;;;;;;5016307;28;20124;-82
2021/05/11 00:06:53;;;;;;;8.13;2.97;;;;;;;;;;5020076;28;20021;-82
2021/05/11 00:09:19;;;;;;;8.38;2.80;;;;;;;;;;5021928;28;20022;-82
2021/05/11 00:11:44;;;;;;;12.07;3.70;;;;;;;;;;5012266;28;20123;-82
2021/05/11 00:14:09;;;;;;;7.95;2.78;;;;;;;;;;5018427;28;20032;-82
2021/05/11 00:16:35;;;;;;;10.15;2.80;;;;;;;;;;5011378;28;20030;-82
2021/05/11 00:19:03;;;;;;;6.88;2.30;;;;;;;;;;5018236;28;20086;-82
2021/05/11 00:21:29;;;;;;;7.63;2.22;;;;;;;;;;5006608;28;20072;-82
2021/05/11 00:23:54;;;;;;;5.80;2.90;;;;;;;;;;5020334;28;20377;-82
2021/05/11 00:26:19;;;;;;;5.63;2.42;;;;;;;;;;5008748;28;20485;-83
2021/05/11 00:28:44;;;;;;;8.65;2.50;;;;;;;;;;5009164;28;20053;-82
2021/05/11 00:31:09;;;;;;;5.63;2.13;;;;;;;;;;5015109;28;20780;-82
2021/05/11 00:33:35;;;;;;;8.82;2.83;;;;;;;;;;5017692;28;20021;-83
2021/05/11 00:36:00;;;;;;;6.20;2.28;;;;;;;;;;5010770;28;20151;-82
2021/05/11 00:38:25;;;;;;;6.90;2.30;;;;;;;;;;5020926;28;20460;-82
2021/05/11 00:40:50;;;;;;;7.10;2.40;;;;;;;;;;5012769;28;20139;-82
2021/05/11 00:43:15;;;;;;;7.10;2.28;;;;;;;;;;5024958;28;20041;-82
2021/05/11 00:45:41;;;;;;;7.50;2.67;;;;;;;;;;5024254;28;20033;-82
2021/05/11 00:48:06;;;;;;;11.00;2.83;;;;;;;;;;5024300;28;20389;-82
2021/05/11 00:50:31;;;;;;;9.98;3.10;;;;;;;;;;5012143;28;20025;-82
2021/05/11 00:52:57;;;;;;;11.80;2.70;;;;;;;;;;5015149;28;20833;-82
2021/05/11 00:55:22;;;;;;;6.50;2.17;;;;;;;;;;5022492;28;20022;-82
2021/05/11 00:57:48;;;;;;;9.63;2.45;;;;;;;;;;5018419;28;20452;-83
2021/05/11 01:00:13;;;;;;;6.97;2.17;;;;;;;;;;5010323;28;20055;-82
2021/05/11 01:02:38;;;;;;;7.05;2.25;;;;;;;;;;5014965;28;20094;-82
2021/05/11 01:05:05;;;;;;;8.60;2.50;;;;;;;;;;5010351;28;20121;-82
2021/05/11 01:07:30;;;;;;;7.65;2.10;;;;;;;;;;5017893;28;20414;-82
2021/05/11 01:09:57;;;;;;;8.88;2.10;;;;;;;;;;5014264;28;20078;-82
2021/05/11 01:12:22;;;;;;;9.20;2.65;;;;;;;;;;5020912;28;20060;-82
2021/05/11 01:14:47;;;;;;;6.07;1.85;;;;;;;;;;5013988;28;20060;-82
2021/05/11 01:17:18;;;;;;;7.05;2.10;;;;;;;;;;5010330;28;20110;-82
2021/05/11 01:19:55;;;;;;;10.55;2.50;;;;;;;;;;5013049;28;20116;-82
2021/05/11 01:22:43;;;;;;;7.35;2.10;;;;;;;;;;5011274;28;20105;-82
2021/05/11 01:25:12;;;;;;;14.35;2.10;;;;;;;;;;5011976;28;20114;-82
2021/05/11 01:44:09;;;;;;;7.00;2.08;;;;;;;;;;5023763;28;20519;-81
2021/05/11 01:49:13;;;;;;;8.07;2.50;;;;;;;;;;5006547;28;20031;-81
2021/05/11 02:24:10;;;;;;;6.05;2.90;;;;;;;;;;5053983;28;20025;-82
2021/05/11 02:26:36;;;;;;;8.77;2.30;;;;;;;;;;5025690;28;20091;-82
2021/05/11 02:29:01;;;;;;;7.68;2.75;;;;;;;;;;5015331;28;20021;-82
2021/05/11 02:31:26;;;;;;;8.38;2.35;;;;;;;;;;5012539;28;20101;-82
2021/05/11 02:33:51;;;;;;;11.43;2.83;;;;;;;;;;5015450;28;20033;-82
2021/05/11 02:36:17;;;;;;;12.15;3.28;;;;;;;;;;5013142;28;20057;-82
2021/05/11 02:38:42;;;;;;;8.95;2.58;;;;;;;;;;5012136;28;20071;-82
2021/05/11 02:41:07;;;;;;;7.88;3.00;;;;;;;;;;5016337;28;20030;-82
2021/05/11 02:43:36;;;;;;;14.75;3.15;;;;;;;;;;5014132;28;20569;-82
2021/05/11 02:46:01;;;;;;;12.23;3.97;;;;;;;;;;5024967;28;20498;-82
2021/05/11 02:48:29;;;;;;;9.80;3.10;;;;;;;;;;5022995;28;20108;-82
2021/05/11 02:50:54;;;;;;;6.72;2.53;;;;;;;;;;5011638;28;20447;-81
2021/05/11 02:53:19;;;;;;;8.45;2.95;;;;;;;;;;5016684;28;20105;-82
2021/05/11 02:55:45;;;;;;;5.57;2.70;;;;;;;;;;5006676;28;20105;-81
2021/05/11 02:58:14;;;;;;;5.80;2.90;;;;;;;;;;5010915;28;20030;-82
2021/05/11 03:00:39;;;;;;;13.30;3.00;;;;;;;;;;5014969;28;20022;-82
2021/05/11 03:03:05;;;;;;;7.57;2.70;;;;;;;;;;5015161;28;20392;-82
2021/05/11 03:05:30;;;;;;;9.02;2.83;;;;;;;;;;5019104;28;20018;-82
2021/05/11 03:07:56;;;;;;;11.38;3.08;;;;;;;;;;5025245;28;20028;-82
2021/05/11 03:10:21;;;;;;;7.60;3.33;;;;;;;;;;5023891;28;20017;-81
2021/05/11 03:12:46;;;;;;;6.43;3.05;;;;;;;;;;5008697;28;20018;-82
2021/05/11 03:15:12;;;;;;;7.93;3.22;;;;;;;;;;5009945;28;20032;-83
2021/05/11 03:17:37;;;;;;;9.00;2.83;;;;;;;;;;5010808;28;20070;-82
2021/05/11 03:20:03;;;;;;;15.88;2.95;;;;;;;;;;5016397;28;20112;-82
2021/05/11 03:22:29;;;;;;;12.23;3.13;;;;;;;;;;5019328;28;20461;-82
2021/05/11 03:24:54;;;;;;;8.63;2.85;;;;;;;;;;5008123;28;20056;-82
2021/05/11 03:27:19;;;;;;;7.20;2.58;;;;;;;;;;5024095;28;20573;-82
2021/05/11 03:29:44;;;;;;;9.27;3.00;;;;;;;;;;5010332;28;20055;-82
2021/05/11 03:32:10;;;;;;;9.13;2.70;;;;;;;;;;5016150;28;20110;-82
2021/05/11 03:34:36;;;;;;;9.43;2.70;;;;;;;;;;5011312;28;20075;-82
2021/05/11 03:37:01;;;;;;;7.20;3.10;;;;;;;;;;5014507;28;20026;-82
2021/05/11 03:39:27;;;;;;;9.63;2.85;;;;;;;;;;5012930;28;20052;-82
2021/05/11 03:41:59;;;;;;;13.35;3.67;;;;;;;;;;5014011;28;20025;-81
2021/05/11 03:44:27;;;;;;;;;;;;;;;;;;5023411;28;20437;-82
2021/05/11 03:46:53;;;;;;;9.45;2.88;;;;;;;;;;5013663;28;19913;-82
2021/05/11 03:49:18;;;;;;;9.48;2.83;;;;;;;;;;5015418;28;20149;-82
2021/05/11 03:51:43;;;;;;;9.30;2.83;;;;;;;;;;5009143;28;20060;-82
2021/05/11 03:54:09;;;;;;;8.57;3.08;;;;;;;;;;5014010;28;20060;-84
2021/05/11 03:56:35;;;;;;;12.88;3.28;;;;;;;;;;5028304;28;20131;-84
2021/05/11 03:59:04;;;;;;;11.15;3.08;;;;;;;;;;5021034;28;20091;-84
2021/05/11 04:01:29;;;;;;;8.55;3.08;;;;;;;;;;5012506;28;20036;-84
2021/05/11 04:03:54;;;;;;;7.90;2.97;;;;;;;;;;5008767;28;20033;-84
2021/05/11 04:06:19;;;;;;;9.90;2.63;;;;;;;;;;5021694;28;20040;-84
2021/05/11 04:08:49;;;;;;;12.85;2.42;;;;;;;;;;5019745;28;20414;-84
2021/05/11 04:16:33;;;;;;;5.15;2.50;;;;;;;;;;5029200;28;20075;-84
2021/05/11 04:18:58;;;;;;;14.82;2.90;;;;;;;;;;5014664;28;20022;-84
2021/05/11 04:21:24;;;;;;;9.52;3.15;;;;;;;;;;5018559;28;20030;-84
2021/05/11 04:23:50;;;;;;;7.32;2.60;;;;;;;;;;5022526;28;20384;-84
2021/05/11 04:26:16;;;;;;;10.70;2.78;;;;;;;;;;5017842;28;20025;-84
2021/05/11 04:28:41;;;;;;;10.52;2.85;;;;;;;;;;5022307;28;20022;-84
2021/05/11 04:31:07;;;;;;;11.50;2.83;;;;;;;;;;5019409;28;20388;-84
2021/05/11 04:33:33;;;;;;;6.57;2.88;;;;;;;;;;5020003;28;20151;-84
2021/05/11 04:35:58;;;;;;;38.03;16.42;;;;;;;;;;5021249;28;20022;-84
2021/05/11 04:38:24;;;;;;;15.90;6.50;;;;;;;;;;5025421;28;20086;-84
2021/05/11 04:40:49;;;;;;;17.42;7.35;;;;;;;;;;5024561;28;20659;-84
2021/05/11 04:43:15;;;;;;;14.63;6.60;;;;;;;;;;5010757;28;20030;-84
2021/05/11 04:45:40;;;;;;;11.13;4.25;;;;;;;;;;5020634;28;20033;-84
2021/05/11 04:48:06;;;;;;;9.48;4.20;;;;;;;;;;5010956;28;20026;-84
2021/05/11 04:50:31;;;;;;;12.27;4.38;;;;;;;;;;5024648;28;20479;-84
2021/05/11 04:52:57;;;;;;;14.38;6.40;;;;;;;;;;5018653;28;20049;-84
2021/05/11 04:55:22;;;;;;;19.40;7.00;;;;;;;;;;5016638;28;20461;-84
2021/05/11 04:57:47;;;;;;;15.32;6.03;;;;;;;;;;5021391;28;20063;-84
2021/05/11 05:00:13;;;;;;;14.00;4.93;;;;;;;;;;5016450;28;20029;-84
2021/05/11 05:02:44;;;;;;;9.02;5.05;;;;;;;;;;5012040;28;20022;-84
2021/05/11 05:05:09;;;;;;;16.00;4.32;;;;;;;;;;5014030;28;20033;-84
2021/05/11 05:07:38;;;;;;;9.90;3.30;;;;;;;;;;5010435;28;20022;-84
2021/05/11 05:10:04;;;;;;;6.18;3.00;;;;;;;;;;5012224;28;20022;-84
2021/05/11 05:12:29;;;;;;;10.90;3.47;;;;;;;;;;5011660;28;20018;-85
2021/05/11 05:14:54;;;;;;;9.15;2.95;;;;;;;;;;5041724;28;20021;-84
2021/05/11 05:17:19;;;;;;;7.85;3.60;;;;;;;;;;5019550;28;20075;-84
2021/05/11 05:19:44;;;;;;;10.75;3.15;;;;;;;;;;5012057;28;20078;-84
2021/05/11 05:22:09;;;;;;;9.20;3.30;;;;;;;;;;5015997;28;20457;-84
2021/05/11 05:24:47;;;;;;;9.30;3.38;;;;;;;;;;5018849;28;20030;-84
2021/05/11 05:29:41;;;;;;;7.57;3.20;;;;;;;;;;5019365;28;20054;-84
2021/05/11 05:32:07;;;;;;;10.25;3.13;;;;;;;;;;5018824;28;20481;-84
2021/05/11 05:34:32;;;;;;;7.28;3.38;;;;;;;;;;5010830;28;20117;-84
2021/05/11 05:36:58;;;;;;;16.27;3.78;;;;;;;;;;5017609;28;20037;-85
2021/05/11 05:39:28;;;;;;;10.38;3.60;;;;;;;;;;5010807;28;20080;-84
2021/05/11 05:41:53;;;;;;;14.65;3.65;;;;;;;;;;5017222;28;20021;-84
2021/05/11 05:44:18;;;;;;;8.90;3.80;;;;;;;;;;5010977;28;20022;-84
2021/05/11 05:46:44;;;;;;;16.70;4.30;;;;;;;;;;5009970;28;20041;-84
2021/05/11 05:49:09;;;;;;;13.48;3.83;;;;;;;;;;5018127;28;20017;-84
2021/05/11 05:51:34;;;;;;;13.82;3.70;;;;;;;;;;5018426;28;20029;-84
2021/05/11 05:54:00;;;;;;;10.68;3.70;;;;;;;;;;5023056;28;20021;-84
2021/05/11 05:56:25;;;;;;;12.18;3.78;;;;;;;;;;5009596;28;20028;-84
2021/05/11 05:58:50;;;;;;;9.45;3.50;;;;;;;;;;5017926;28;20735;-84
2021/05/11 06:01:16;;;;;;;8.57;3.15;;;;;;;;;;5013518;28;20022;-84
2021/05/11 06:06:09;;;;;;;9.23;3.25;;;;;;;;;;5012001;28;20501;-85
2021/05/11 06:08:35;;;;;;;14.20;3.95;;;;;;;;;;5013189;28;20014;-85
2021/05/11 06:11:07;;;;;;;7.57;3.67;;;;;;;;;;5010865;28;20021;-85
2021/05/11 06:13:37;;;;;;;12.13;3.08;;;;;;;;;;5022599;28;20101;-85
2021/05/11 06:18:47;;;;;;;9.00;3.60;;;;;;;;;;5029513;28;20078;-85
2021/05/11 06:21:12;;;;;;;17.77;4.03;;;;;;;;;;5031178;28;20099;-83
2021/05/11 06:23:40;;;;;;;7.97;3.63;;;;;;;;;;5029408;28;20094;-84
2021/05/11 06:26:06;;;;;;;6.75;3.00;;;;;;;;;;5025585;28;20033;-83
2021/05/11 06:28:37;;;;;;;8.60;2.90;;;;;;;;;;5036541;28;20022;-83
2021/05/11 06:31:02;;;;;;;10.38;2.85;;;;;;;;;;5012414;28;20164;-88
2021/05/11 06:33:27;;;;;;;5.90;2.70;;;;;;;;;;5009059;28;20108;-88
2021/05/11 06:35:53;;;;;;;9.23;2.65;;;;;;;;;;5013997;28;20025;-88
2021/05/11 06:38:19;;;;;;;6.82;2.70;;;;;;;;;;5029855;28;20034;-88
2021/05/11 06:40:44;;;;;;;10.18;2.72;;;;;;;;;;5021528;28;20026;-88
2021/05/11 06:43:09;;;;;;;7.38;2.92;;;;;;;;;;5013740;28;20041;-87
2021/05/11 06:48:22;;;;;;;9.20;2.97;;;;;;;;;;5014398;28;20116;-88
2021/05/11 06:52:44;;;;;;;8.60;2.70;;;;;;;;;;5015195;28;20017;-88
2021/05/11 06:53:51;;;;;;;8.48;2.80;;;;;;;;;;5004773;28;20047;-88
2021/05/11 06:56:17;;;;;;;11.02;2.97;;;;;;;;;;5017027;28;20022;-88
2021/05/11 06:58:43;;;;;;;8.88;3.08;;;;;;;;;;5020498;28;20511;-89
2021/05/11 07:01:08;;;;;;;12.80;3.22;;;;;;;;;;5013595;28;20061;-88
2021/05/11 07:03:33;;;;;;;8.38;3.42;;;;;;;;;;5022677;28;20071;-88
2021/05/11 07:06:00;;;;;;;11.00;2.90;;;;;;;;;;5022488;28;20056;-88
2021/05/11 07:08:32;;;;;;;7.45;3.30;;;;;;;;;;5010634;28;20022;-88
2021/05/11 07:11:01;;;;;;;12.10;2.97;;;;;;;;;;5010796;28;20032;-88
2021/05/11 07:13:26;;;;;;;10.50;2.80;;;;;;;;;;5014903;28;20167;-88
2021/05/11 07:15:51;;;;;;;9.70;2.85;;;;;;;;;;5028434;28;20523;-88
2021/05/11 07:18:17;;;;;;;14.95;3.47;;;;;;;;;;5050839;28;20108;-88
2021/05/11 07:20:44;;;;;;;13.30;3.55;;;;;;;;;;5010790;28;20056;-88
2021/05/11 07:23:09;;;;;;;12.05;3.17;;;;;;;;;;5015564;28;20022;-88
2021/05/11 07:30:58;;;;;;;8.68;2.75;;;;;;;;;;5019077;28;20123;-88
2021/05/11 07:33:27;;;;;;;10.27;3.20;;;;;;;;;;5016385;28;20065;-89
2021/05/11 07:35:52;;;;;;;11.55;3.20;;;;;;;;;;5009429;28;20029;-88
2021/05/11 07:38:17;;;;;;;12.85;3.85;;;;;;;;;;5039995;28;20033;-87
2021/05/11 07:40:43;;;;;;;13.00;4.35;;;;;;;;;;5003400;28;20025;-88
2021/05/11 07:43:09;;;;;;;11.57;4.10;;;;;;;;;;5008991;28;20401;-88
2021/05/11 07:48:46;;;;;;;11.20;3.80;;;;;;;;;;5017832;28;20025;-88
2021/05/11 08:01:57;;;;;;;8.38;3.70;;;;;;;;;;5012116;28;20105;-88
2021/05/11 08:15:36;;;;;;;18.73;4.95;;;;;;;;;;5017334;28;20028;-88
2021/05/11 08:21:48;;;;;;;12.30;4.20;;;;;;;;;;5021178;28;20085;-89
2021/05/11 08:28:47;;;;;;;14.15;4.45;;;;;;;;;;5012633;28;20071;-88
2021/05/11 08:31:13;;;;;;;16.13;5.28;;;;;;;;;;5064417;28;20017;-89
2021/05/11 08:33:38;;;;;;;14.10;4.95;;;;;;;;;;5026614;28;20101;-88
2021/05/11 08:36:03;;;;;;;12.90;4.82;;;;;;;;;;5016895;28;20053;-88
2021/05/11 08:38:29;;;;;;;12.77;4.95;;;;;;;;;;5022232;28;20094;-88
2021/05/11 08:40:54;;;;;;;12.73;4.63;;;;;;;;;;5020862;28;20030;-88
2021/05/11 08:43:25;;;;;;;12.85;4.28;;;;;;;;;;5016858;28;20030;-88
2021/05/11 08:45:50;;;;;;;13.80;4.15;;;;;;;;;;5019508;28;20068;-88
2021/05/11 08:48:17;;;;;;;42.85;5.03;;;;;;;;;;5010968;28;20046;-88
2021/05/11 08:50:44;;;;;;;13.23;4.32;;;;;;;;;;5027170;28;20529;-88
2021/05/11 09:07:15;;;;;;;11.80;4.05;;;;;;;;;;5020413;28;20077;-88
2021/05/11 09:15:39;;;;;;;11.68;3.00;;;;;;;;;;5013332;28;20495;-87
2021/05/11 09:26:03;;;;;;;13.32;4.47;;;;;;;;;;5024808;28;20026;-88
2021/05/11 09:31:21;;;;;;;10.90;3.92;;;;;;;;;;5012089;28;20094;-88
2021/05/11 09:33:58;;;;;;;11.25;3.47;;;;;;;;;;5022133;28;20026;-88
2021/05/11 10:48:18;;;;;;;17.15;4.57;;;;;;;;;;5047537;28;20025;-88
2021/05/11 10:51:10;;;;;;;10.82;3.95;;;;;;;;;;5010098;28;20018;-88
2021/05/11 10:53:39;;;;;;;11.77;3.58;;;;;;;;;;5008362;28;20112;-89
2021/05/11 10:56:36;;;;;;;10.70;3.88;;;;;;;;;;5039512;28;20613;-88
2021/05/11 10:59:16;;;;;;;7.78;3.70;;;;;;;;;;5023762;28;20120;-88
2021/05/11 11:01:45;;;;;;;11.05;3.45;;;;;;;;;;5027746;28;20021;-88
2021/05/11 11:04:19;;;;;;;7.10;2.65;;;;;;;;;;5013706;28;20030;-88
2021/05/11 11:06:56;;;;;;;8.18;3.17;;;;;;;;;;5022881;28;20554;-89
2021/05/11 11:09:21;;;;;;;12.13;3.30;;;;;;;;;;5009306;28;20014;-88
2021/05/11 11:11:47;;;;;;;10.70;2.97;;;;;;;;;;5015884;28;20082;-88
2021/05/11 11:14:12;;;;;;;9.55;3.22;;;;;;;;;;5016961;28;20030;-89
2021/05/11 11:16:38;;;;;;;8.15;2.60;;;;;;;;;;5016972;28;20037;-89
2021/05/11 11:19:09;;;;;;;12.20;2.97;;;;;;;;;;5017968;28;20457;-89
2021/05/11 11:24:28;;;;;;;11.40;3.42;;;;;;;;;;5014576;28;20500;-89
2021/05/11 11:26:55;;;;;;;12.45;3.03;;;;;;;;;;5010947;28;20057;-88
2021/05/11 11:29:21;;;;;;;11.18;2.60;;;;;;;;;;5018881;28;20074;-89
2021/05/11 11:31:46;;;;;;;9.43;2.28;;;;;;;;;;5008326;28;20018;-89
2021/05/11 11:34:18;;;;;;;7.95;1.90;;;;;;;;;;5019556;28;20044;-89
2021/05/11 11:36:49;;;;;;;9.45;1.90;;;;;;;;;;5032767;28;20214;-89
2021/05/11 11:39:18;;;;;;;8.73;2.38;;;;;;;;;;5055902;28;20082;-89
2021/05/11 11:41:44;;;;;;;6.13;1.95;;;;;;;;;;5011540;28;20112;-89
2021/05/11 11:44:13;;;;;;;8.57;1.85;;;;;;;;;;5033544;28;20449;-89
2021/05/11 11:46:38;;;;;;;10.80;2.15;;;;;;;;;;5016259;28;20477;-89
2021/05/11 11:49:11;;;;;;;8.32;1.60;;;;;;;;;;5020232;28;20175;-89
2021/05/11 11:51:37;;;;;;;6.78;1.77;;;;;;;;;;5023388;28;20043;-90
2021/05/11 11:54:10;;;;;;;7.25;2.08;;;;;;;;;;5008646;28;20026;-89
2021/05/11 11:59:22;;;;;;;3.58;1.05;;;;;;;;;;5009915;28;20064;-89
2021/05/11 12:01:54;;;;;;;5.15;1.60;;;;;;;;;;5013710;28;20461;-89
2021/05/11 12:04:19;;;;;;;;;;;;;;;;;;5011886;28;20078;-89
2021/05/11 12:06:48;;;;;;;7.72;1.80;;;;;;;;;;5065513;28;19911;-89
2021/05/11 12:09:13;;;;;;;9.63;1.70;;;;;;;;;;5021550;28;20028;-89
2021/05/11 12:11:39;;;;;;;5.70;1.52;;;;;;;;;;5033365;28;20383;-89
2021/05/11 12:14:04;;;;;;;5.75;1.13;;;;;;;;;;5038361;28;20085;-89
2021/05/11 12:16:29;;;;;;;7.38;1.52;;;;;;;;;;5012853;28;20022;-89
2021/05/11 12:21:30;;;;;;;12.35;1.92;;;;;;;;;;5037015;28;20070;-89
2021/05/11 12:24:03;;;;;;;4.90;1.40;;;;;;;;;;5024595;28;20036;-89
2021/05/11 12:26:28;;;;;;;18.55;1.98;;;;;;;;;;5049619;28;20029;-89
2021/05/11 12:29:04;;;;;;;11.13;1.42;;;;;;;;;;5016680;28;20017;-89
2021/05/11 12:31:36;;;;;;;15.40;1.40;;;;;;;;;;5011434;28;20113;-89
2021/05/11 12:34:05;;;;;;;10.40;1.40;;;;;;;;;;5014230;28;20495;-89
2021/05/11 12:36:31;;;;;;;43.85;2.92;;;;;;;;;;5027270;28;20379;-89
2021/05/11 12:39:16;;;;;;;24.65;2.50;;;;;;;;;;5035128;28;20057;-89
2021/05/11 12:41:41;;;;;;;8.82;1.50;;;;;;;;;;5023408;28;20033;-89
2021/05/11 12:44:06;;;;;;;7.53;1.50;;;;;;;;;;5012345;28;20026;-89
2021/05/11 12:46:35;;;;;;;5.15;2.08;;;;;;;;;;5011299;28;20431;-89
2021/05/11 12:49:18;;;;;;;4.45;1.90;;;;;;;;;;5019136;28;20025;-89
2021/05/11 12:51:49;;;;;;;8.80;1.95;;;;;;;;;;5016617;28;20021;-89
2021/05/11 12:54:27;;;;;;;8.30;2.75;;;;;;;;;;5019174;28;20108;-90
2021/05/11 13:31:00;;;;;;;8.35;2.60;;;;;;;;;;5017159;28;20018;-90
2021/05/11 13:33:30;;;;;;;9.15;1.90;;;;;;;;;;5041943;28;20029;-89
2021/05/11 13:35:56;;;;;;;8.15;2.03;;;;;;;;;;5010461;28;20079;-90
2021/05/11 13:38:21;;;;;;;11.90;2.03;;;;;;;;;;5017287;28;20430;-90
2021/05/11 13:40:47;;;;;;;7.00;1.63;;;;;;;;;;5023787;28;20065;-90
2021/05/11 13:43:12;;;;;;;6.43;1.73;;;;;;;;;;5025112;28;20030;-90
2021/05/11 13:45:37;;;;;;;5.95;2.40;;;;;;;;;;5024432;28;20032;-89
2021/05/11 13:48:04;;;;;;;6.30;1.98;;;;;;;;;;5018831;28;20121;-89
2021/05/11 13:53:20;;;;;;;10.35;2.40;;;;;;;;;;5019690;28;20444;-90
2021/05/11 14:03:38;;;;;;;10.25;3.20;;;;;;;;;;5011222;28;20037;-90
2021/05/11 14:06:03;;;;;;;12.15;2.95;;;;;;;;;;5024378;28;20025;-90
2021/05/11 14:08:28;;;;;;;8.63;1.90;;;;;;;;;;5014537;28;20059;-90
2021/05/11 14:10:54;;;;;;;9.60;2.00;;;;;;;;;;5018936;28;20385;-89
2021/05/11 14:13:19;;;;;;;13.38;1.67;;;;;;;;;;5017947;28;20018;-90
2021/05/11 14:15:44;;;;;;;9.20;1.83;;;;;;;;;;5021734;28;20026;-89
2021/05/11 14:18:09;;;;;;;10.70;2.15;;;;;;;;;;5011179;28;20060;-90
2021/05/11 14:20:34;;;;;;;8.18;2.05;;;;;;;;;;5033953;28;20025;-89
2021/05/11 14:23:00;;;;;;;8.18;1.85;;;;;;;;;;5013095;28;20472;-89
2021/05/11 14:25:25;;;;;;;8.55;1.80;;;;;;;;;;5027779;28;20058;-90
2021/05/11 14:27:50;;;;;;;13.85;1.63;;;;;;;;;;5023601;28;20060;-89
2021/05/11 14:30:15;;;;;;;6.15;1.70;;;;;;;;;;5011946;28;20395;-89
2021/05/11 14:32:40;;;;;;;11.38;1.38;;;;;;;;;;5009802;28;20022;-89
2021/05/11 14:35:06;;;;;;;8.05;1.10;;;;;;;;;;5027260;28;20034;-89
2021/05/11 14:37:32;;;;;;;5.72;1.00;;;;;;;;;;5013105;28;20018;-89
2021/05/11 14:39:57;;;;;;;5.70;0.85;;;;;;;;;;5009536;28;20521;-89
2021/05/11 14:42:22;;;;;;;13.30;1.58;;;;;;;;;;5014024;28;20029;-89
2021/05/11 14:44:52;;;;;;;8.23;0.85;;;;;;;;;;5012201;28;20385;-89
2021/05/11 14:47:18;;;;;;;4.90;1.20;;;;;;;;;;5013916;28;20128;-89
2021/05/11 14:49:43;;;;;;;5.22;1.20;;;;;;;;;;5014403;28;20159;-89
2021/05/11 14:52:12;;;;;;;6.47;1.20;;;;;;;;;;5066193;27;20037;-90
2021/05/11 14:54:37;;;;;;;6.30;1.10;;;;;;;;;;5051960;28;20457;-89
2021/05/11 14:57:02;;;;;;;4.60;1.02;;;;;;;;;;5010297;28;20032;-89
2021/05/11 14:59:28;;;;;;;8.68;1.40;;;;;;;;;;5013896;28;20026;-88
2021/05/11 15:01:53;;;;;;;5.43;0.98;;;;;;;;;;5040428;28;20075;-89
2021/05/11 15:04:18;;;;;;;9.82;1.10;;;;;;;;;;5010682;28;20057;-89
2021/05/11 15:06:43;;;;;;;7.47;1.20;;;;;;;;;;5014212;28;20021;-89
2021/05/11 15:09:12;;;;;;;3.95;0.90;;;;;;;;;;5011885;28;20025;-89
2021/05/11 15:11:37;;;;;;;6.22;1.20;;;;;;;;;;5010787;28;20021;-89
2021/05/11 15:14:03;;;;;;;7.13;1.13;;;;;;;;;;5009430;28;20465;-89
2021/05/11 15:16:31;;;;;;;7.10;1.10;;;;;;;;;;5017096;28;20025;-90
2021/05/11 15:18:56;;;;;;;2.05;0.70;;;;;;;;;;5008812;28;20033;-89
2021/05/11 15:21:21;;;;;;;5.30;0.82;;;;;;;;;;5019706;28;20013;-89
2021/05/11 15:23:47;;;;;;;2.33;0.70;;;;;;;;;;5021156;28;20022;-89
2021/05/11 15:26:13;;;;;;;3.95;0.90;;;;;;;;;;5008445;28;20029;-90
2021/05/11 15:28:39;;;;;;;5.28;1.00;;;;;;;;;;5021825;28;20018;-89
2021/05/11 15:31:04;;;;;;;2.88;0.70;;;;;;;;;;5011823;28;20357;-90
2021/05/11 15:33:29;;;;;;;2.10;1.10;;;;;;;;;;5011919;28;20024;-89
2021/05/11 15:35:55;;;;;;;2.85;0.85;;;;;;;;;;5011202;28;20030;-90
2021/05/11 15:38:20;;;;;;;6.43;1.00;;;;;;;;;;5010015;28;20026;-90
2021/05/11 15:40:45;;;;;;;2.75;0.70;;;;;;;;;;5020456;28;20045;-89
2021/05/11 15:43:11;;;;;;;6.25;0.93;;;;;;;;;;5017748;28;20026;-89
2021/05/11 15:45:37;;;;;;;2.65;0.80;;;;;;;;;;5010717;28;20115;-90
2021/05/11 15:48:04;;;;;;;6.78;0.95;;;;;;;;;;5012810;28;20097;-90
2021/05/11 15:50:30;;;;;;;2.00;0.80;;;;;;;;;;5018550;28;20030;-90
2021/05/11 15:52:57;;;;;;;6.00;0.85;;;;;;;;;;5017582;28;20041;-90
2021/05/11 15:55:23;;;;;;;1.13;0.60;;;;;;;;;;5016459;28;20041;-90
2021/05/11 15:57:49;;;;;;;4.53;0.80;;;;;;;;;;5015751;28;20022;-83
2021/05/11 16:00:14;;;;;;;1.85;0.70;;;;;;;;;;5016000;28;20590;-82
2021/05/11 16:02:39;;;;;;;2.70;0.70;;;;;;;;;;5015598;28;20025;-83
2021/05/11 16:05:06;;;;;;;5.07;0.60;;;;;;;;;;5018924;28;20490;-83
2021/05/11 16:07:32;;;;;;;3.25;0.80;;;;;;;;;;5011091;28;20044;-83
2021/05/11 16:09:57;;;;;;;4.25;0.60;;;;;;;;;;5017987;28;20512;-83
2021/05/11 16:12:22;;;;;;;1.55;0.77;;;;;;;;;;5020034;28;20197;-83
2021/05/11 16:14:48;;;;;;;2.15;0.63;;;;;;;;;;5028060;28;20033;-82
2021/05/11 16:17:14;;;;;;;3.25;0.70;;;;;;;;;;5023144;28;20051;-83
2021/05/11 16:19:39;;;;;;;3.35;0.70;;;;;;;;;;5010755;28;20388;-83
2021/05/11 16:22:04;;;;;;;6.80;0.80;;;;;;;;;;5015835;28;20029;-83
2021/05/11 16:24:29;;;;;;;2.67;0.70;;;;;;;;;;5026711;28;20439;-83
2021/05/11 16:26:54;;;;;;;3.95;0.80;;;;;;;;;;5017426;28;20028;-83
2021/05/11 16:29:20;;;;;;;3.22;0.70;;;;;;;;;;5028277;28;20028;-83
2021/05/11 16:31:47;;;;;;;4.72;0.60;;;;;;;;;;5012959;28;20380;-83
2021/05/11 16:34:13;;;;;;;3.17;0.73;;;;;;;;;;5031287;28;20039;-83
2021/05/11 16:36:38;;;;;;;2.72;0.70;;;;;;;;;;5020383;28;20029;-84
2021/05/11 16:39:03;;;;;;;1.45;0.60;;;;;;;;;;5026187;28;20369;-83
2021/05/11 16:41:28;;;;;;;2.40;0.80;;;;;;;;;;5069585;28;20040;-83
2021/05/11 16:43:57;;;;;;;3.50;0.80;;;;;;;;;;5048222;28;20080;-83
2021/05/11 16:46:22;;;;;;;7.70;1.20;;;;;;;;;;5050137;28;20095;-83
2021/05/11 16:48:47;;;;;;;1.52;0.63;;;;;;;;;;5055879;28;20616;-83
2021/05/11 16:51:12;;;;;;;3.85;0.90;;;;;;;;;;5021366;28;20525;-82
2021/05/11 16:53:37;;;;;;;4.15;1.00;;;;;;;;;;5032205;27;20017;-83
2021/05/11 16:56:03;;;;;;;3.15;0.93;;;;;;;;;;5034227;28;20380;-83
2021/05/11 16:58:28;;;;;;;2.03;0.90;;;;;;;;;;5032504;28;20029;-83
2021/05/11 17:00:54;;;;;;;2.58;0.90;;;;;;;;;;5018890;28;20055;-82
2021/05/11 17:03:21;;;;;;;3.40;0.85;;;;;;;;;;5016971;28;20033;-82
2021/05/11 17:05:46;;;;;;;4.28;1.10;;;;;;;;;;5031576;28;20110;-83
2021/05/11 17:08:12;;;;;;;5.28;1.25;;;;;;;;;;5016494;28;20116;-83
2021/05/11 17:10:37;;;;;;;3.67;1.00;;;;;;;;;;5014291;28;20026;-83
2021/05/11 17:13:03;;;;;;;2.80;1.00;;;;;;;;;;5048499;28;20019;-83
2021/05/11 17:15:29;;;;;;;4.05;1.10;;;;;;;;;;5033387;28;20033;-83
2021/05/11 17:17:54;;;;;;;2.38;0.88;;;;;;;;;;5016914;28;20039;-83
2021/05/11 17:20:21;;;;;;;2.92;0.80;;;;;;;;;;5022710;28;20023;-83
2021/05/11 17:22:49;;;;;;;3.03;1.00;;;;;;;;;;5018921;28;20083;-83
2021/05/11 17:25:14;;;;;;;2.70;0.82;;;;;;;;;;5025618;28;20057;-83
2021/05/11 17:27:40;;;;;;;1.38;0.75;;;;;;;;;;5014026;28;20046;-83
2021/05/11 17:30:07;;;;;;;4.65;1.38;;;;;;;;;;5020048;28;20533;-82
2021/05/11 17:32:32;;;;;;;5.10;1.10;;;;;;;;;;5022042;28;20014;-82
2021/05/11 17:34:58;;;;;;;2.60;0.88;;;;;;;;;;5029054;27;20487;-82
2021/05/11 17:37:23;;;;;;;3.00;0.80;;;;;;;;;;5030519;28;20079;-83
2021/05/11 17:39:49;;;;;;;4.50;1.00;;;;;;;;;;5018334;28;20022;-83
2021/05/11 17:42:14;;;;;;;3.88;0.95;;;;;;;;;;5020504;28;20036;-83
2021/05/11 17:44:40;;;;;;;4.53;1.08;;;;;;;;;;5023178;28;20106;-83
2021/05/11 17:47:05;;;;;;;4.40;0.90;;;;;;;;;;5040807;27;20029;-83
2021/05/11 17:49:31;;;;;;;9.93;0.90;;;;;;;;;;5046578;28;20022;-82
2021/05/11 17:51:56;;;;;;;2.40;0.95;;;;;;;;;;5018892;28;20510;-83
2021/05/11 17:54:21;;;;;;;2.53;0.85;;;;;;;;;;5032939;28;20053;-82
2021/05/11 17:56:46;;;;;;;3.55;1.00;;;;;;;;;;5037087;27;20021;-82
2021/05/11 17:59:12;;;;;;;2.15;0.70;;;;;;;;;;5022065;28;20025;-83
2021/05/11 18:01:37;;;;;;;3.42;0.85;;;;;;;;;;5022159;28;20017;-83
2021/05/11 18:04:02;;;;;;;2.60;0.88;;;;;;;;;;5018501;28;20079;-83
2021/05/11 18:06:28;;;;;;;7.88;0.90;;;;;;;;;;5047722;28;20382;-83
2021/05/11 18:08:53;;;;;;;2.47;0.90;;;;;;;;;;5024227;28;20021;-83
2021/05/11 18:11:19;;;;;;;3.03;1.00;;;;;;;;;;5023381;28;20051;-83
2021/05/11 18:13:44;;;;;;;3.33;0.90;;;;;;;;;;5022679;28;20479;-83
2021/05/11 18:16:13;;;;;;;4.43;1.00;;;;;;;;;;5015003;28;20127;-83
2021/05/11 18:18:38;;;;;;;1.95;0.90;;;;;;;;;;5017551;28;20161;-83
2021/05/11 18:21:03;;;;;;;3.28;1.27;;;;;;;;;;5019188;28;20061;-89
2021/05/11 18:23:28;;;;;;;3.97;1.40;;;;;;;;;;5012571;28;20086;-89
2021/05/11 18:25:53;;;;;;;2.22;1.02;;;;;;;;;;5010835;28;20366;-89
2021/05/11 18:28:19;;;;;;;3.35;1.20;;;;;;;;;;5018175;28;20042;-89
2021/05/11 18:30:44;;;;;;;5.03;1.15;;;;;;;;;;5015283;28;20021;-90
2021/05/11 18:33:09;;;;;;;3.38;1.38;;;;;;;;;;5026928;28;20026;-90
2021/05/11 18:35:35;;;;;;;3.55;1.25;;;;;;;;;;5018276;28;20022;-90
2021/05/11 18:38:03;;;;;;;2.55;0.82;;;;;;;;;;5021028;28;20101;-89
2021/05/11 18:40:29;;;;;;;4.50;1.00;;;;;;;;;;5013947;28;20101;-89
2021/05/11 18:42:54;;;;;;;5.50;0.93;;;;;;;;;;5011788;28;20061;-89
2021/05/11 18:45:21;;;;;;;2.42;0.90;;;;;;;;;;5023376;28;20014;-90
2021/05/11 18:47:55;;;;;;;4.40;0.88;;;;;;;;;;5013767;28;20434;-90
2021/05/11 18:50:21;;;;;;;1.23;0.60;;;;;;;;;;5009497;28;20113;-90
2021/05/11 18:52:46;;;;;;;9.65;1.10;;;;;;;;;;5009660;28;20485;-89
2021/05/11 18:55:12;;;;;;;4.65;0.90;;;;;;;;;;5009608;28;20070;-90
2021/05/11 18:57:37;;;;;;;6.03;1.30;;;;;;;;;;5013284;28;20115;-89
2021/05/11 19:00:02;;;;;;;1.70;0.93;;;;;;;;;;5012965;28;20022;-89